Camp Wood, TX (78833)

9:55 AM CDT on September 02, 2015 (GMT -0500)
Chimney Rock Ranch | | Change Station
CLOSE
Current Station
Personal Weather Station
Location: Barksdale, TX
Elevation: 1775 ft
Nearby Weather Stations

Elev 1775 ft 29.84 °N, 100.10 °W | Updated 10 seconds ago

Overcast
Overcast
75.0 °F
Feels Like 75 °F
N
2.0
Wind Variable Wind from WSW
Gusts 2.5 mph

Today
High -- | Low -- °F
--% Chance of Precip.
Yesterday
High -- | Low -- °F
Precip. -- in
7:17 AM 8:01 PM
Waning Gibbous, 79% visible
Pressure 30.14 in
Visibility 10.0 miles
Clouds Mostly Cloudy 900 ft
Heat Index 75 °F
Dew Point 70 °F
Humidity 83%
Rainfall 0.00 in
Snow Depth Not available.
UV 2.0 out of 12
Pollen 9.50 out of 12
Air Quality Not available.
Flu Activity Not available.
METAR KECU 021435Z AUTO 17007KT 10SM BKN009 23/19 A3014 RMK AO2
Pressure 30.14 in
Visibility 10.0 miles
Clouds Mostly Cloudy 900 ft
Heat Index 75 °F
Dew Point 70 °F
Humidity 83%
Rainfall 0.00 in
Snow Depth Not available.
UV 2.0 out of 12
Pollen 9.50 out of 12
Air Quality Not available.
Flu Activity Not available.
METAR KECU 021435Z AUTO 17007KT 10SM BKN009 23/19 A3014 RMK AO2

10-Day Weather Forecast

×

Almanac

Astronomy

Sep. 02, 2015 Rise Set
Actual Time
Civil Twilight
Nautical Twilight
Astronomical Twilight
Moon
Length of Visible Light
Length of Day
Tomorrow will be .
, % of the Moon is Illuminated

Today's Extremes

State Highs State Lows

Community

WunderPhotos

Upload Photos

1,851,763 photos uploaded!

WunderBlogs® & News

Nearby

Air Quality

  Air Quality AQ Index Pollutant
Not available.

Snow Depth

Station Depth Elevation

Earthquake Activity

City Distance Mag. Time & Date
Minimum magnitude displayed is 2.5.

Coastal Water Temperatures

Place Temperature

Stations

Nearby Weather Stations

Station Location Temp. Windchill Dew Point Humidity Wind Precip. Elev Updated Type